sensor_id;sensor_type;location;lat;lon;timestamp;pressure;altitude;pressure_sealevel;temperature;humidity
72548;BME280;60570;50.848;6.776;2023-05-23T00:00:24;100640.09;;;20.66;60.99
72548;BME280;60570;50.848;6.776;2023-05-23T00:01:26;100644.97;;;20.65;60.83
72548;BME280;60570;50.848;6.776;2023-05-23T00:02:27;100646.16;;;20.64;60.82
72548;BME280;60570;50.848;6.776;2023-05-23T00:03:29;100648.97;;;20.64;61.10
72548;BME280;60570;50.848;6.776;2023-05-23T00:04:30;100646.56;;;20.63;61.05
72548;BME280;60570;50.848;6.776;2023-05-23T00:05:32;100647.38;;;20.63;60.90
72548;BME280;60570;50.848;6.776;2023-05-23T00:06:33;100645.75;;;20.62;60.78
72548;BME280;60570;50.848;6.776;2023-05-23T00:07:35;100647.75;;;20.62;60.97
72548;BME280;60570;50.848;6.776;2023-05-23T00:08:37;100642.09;;;20.62;61.06
72548;BME280;60570;50.848;6.776;2023-05-23T00:09:39;100643.31;;;20.61;60.78
72548;BME280;60570;50.848;6.776;2023-05-23T00:10:39;100641.72;;;20.60;60.79
72548;BME280;60570;50.848;6.776;2023-05-23T00:11:41;100648.16;;;20.60;61.00
72548;BME280;60570;50.848;6.776;2023-05-23T00:12:44;100642.09;;;20.58;60.71
72548;BME280;60570;50.848;6.776;2023-05-23T00:13:47;100644.13;;;20.58;61.03
72548;BME280;60570;50.848;6.776;2023-05-23T00:14:48;100642.50;;;20.57;61.00
72548;BME280;60570;50.848;6.776;2023-05-23T00:15:49;100640.09;;;20.55;60.97
72548;BME280;60570;50.848;6.776;2023-05-23T00:16:50;100639.69;;;20.57;61.03
72548;BME280;60570;50.848;6.776;2023-05-23T00:17:51;100641.69;;;20.56;60.94
72548;BME280;60570;50.848;6.776;2023-05-23T00:18:52;100642.09;;;20.54;60.93
72548;BME280;60570;50.848;6.776;2023-05-23T00:19:56;100647.34;;;20.56;61.06
72548;BME280;60570;50.848;6.776;2023-05-23T00:20:57;100645.72;;;20.55;60.75
72548;BME280;60570;50.848;6.776;2023-05-23T00:21:59;100640.50;;;20.53;60.70
72548;BME280;60570;50.848;6.776;2023-05-23T00:22:59;100646.13;;;20.53;61.13
72548;BME280;60570;50.848;6.776;2023-05-23T00:24:04;100636.03;;;20.52;60.27
72548;BME280;60570;50.848;6.776;2023-05-23T00:25:06;100641.69;;;20.52;60.83
72548;BME280;60570;50.848;6.776;2023-05-23T00:26:08;100643.69;;;20.52;60.89
72548;BME280;60570;50.848;6.776;2023-05-23T00:27:08;100645.72;;;20.51;60.96
72548;BME280;60570;50.848;6.776;2023-05-23T00:28:10;100642.91;;;20.51;60.84
72548;BME280;60570;50.848;6.776;2023-05-23T00:29:11;100652.56;;;20.50;60.67
72548;BME280;60570;50.848;6.776;2023-05-23T00:30:15;100654.56;;;20.50;60.75
72548;BME280;60570;50.848;6.776;2023-05-23T00:31:16;100647.75;;;20.51;60.89
72548;BME280;60570;50.848;6.776;2023-05-23T00:32:18;100643.69;;;20.48;60.58
72548;BME280;60570;50.848;6.776;2023-05-23T00:33:19;100645.69;;;20.48;60.76
72548;BME280;60570;50.848;6.776;2023-05-23T00:34:21;100648.50;;;20.48;60.57
72548;BME280;60570;50.848;6.776;2023-05-23T00:35:22;100649.34;;;20.48;60.73
72548;BME280;60570;50.848;6.776;2023-05-23T00:36:24;100646.91;;;20.47;61.01
72548;BME280;60570;50.848;6.776;2023-05-23T00:37:25;100648.94;;;20.46;61.16
72548;BME280;60570;50.848;6.776;2023-05-23T00:38:27;100647.31;;;20.45;60.51
72548;BME280;60570;50.848;6.776;2023-05-23T00:39:30;100638.84;;;20.45;60.95
72548;BME280;60570;50.848;6.776;2023-05-23T00:40:32;100643.69;;;20.45;60.80
72548;BME280;60570;50.848;6.776;2023-05-23T00:41:32;100654.16;;;20.44;61.07
72548;BME280;60570;50.848;6.776;2023-05-23T00:42:35;100650.56;;;20.44;60.62
72548;BME280;60570;50.848;6.776;2023-05-23T00:43:36;100652.56;;;20.43;60.78
72548;BME280;60570;50.848;6.776;2023-05-23T00:44:37;100650.94;;;20.42;60.57
72548;BME280;60570;50.848;6.776;2023-05-23T00:45:38;100658.59;;;20.42;60.96
72548;BME280;60570;50.848;6.776;2023-05-23T00:46:41;100652.97;;;20.42;60.89
72548;BME280;60570;50.848;6.776;2023-05-23T00:47:43;100653.75;;;20.42;60.62
72548;BME280;60570;50.848;6.776;2023-05-23T00:48:46;100656.56;;;20.42;60.84
72548;BME280;60570;50.848;6.776;2023-05-23T00:49:46;100653.75;;;20.42;60.77
72548;BME280;60570;50.848;6.776;2023-05-23T00:50:49;100650.94;;;20.42;60.64
72548;BME280;60570;50.848;6.776;2023-05-23T00:51:50;100654.16;;;20.41;60.49
72548;BME280;60570;50.848;6.776;2023-05-23T00:52:52;100646.91;;;20.40;60.71
72548;BME280;60570;50.848;6.776;2023-05-23T00:53:53;100641.63;;;20.38;60.68
72548;BME280;60570;50.848;6.776;2023-05-23T00:54:56;100642.84;;;20.37;60.54
72548;BME280;60570;50.848;6.776;2023-05-23T00:55:57;100648.50;;;20.37;60.68
72548;BME280;60570;50.848;6.776;2023-05-23T00:56:59;100657.38;;;20.36;60.70
72548;BME280;60570;50.848;6.776;2023-05-23T00:57:59;100648.09;;;20.35;60.78
72548;BME280;60570;50.848;6.776;2023-05-23T00:59:01;100638.00;;;20.34;60.88
72548;BME280;60570;50.848;6.776;2023-05-23T01:00:02;100644.44;;;20.35;60.87
72548;BME280;60570;50.848;6.776;2023-05-23T01:01:06;100646.88;;;20.33;61.12
72548;BME280;60570;50.848;6.776;2023-05-23T01:02:07;100644.03;;;20.33;60.87
72548;BME280;60570;50.848;6.776;2023-05-23T01:03:10;100652.09;;;20.31;60.87
72548;BME280;60570;50.848;6.776;2023-05-23T01:04:17;100648.88;;;20.32;60.75
72548;BME280;60570;50.848;6.776;2023-05-23T01:05:20;100646.44;;;20.31;60.60
72548;BME280;60570;50.848;6.776;2023-05-23T01:06:21;100650.09;;;20.31;61.00
72548;BME280;60570;50.848;6.776;2023-05-23T01:07:23;100651.31;;;20.30;60.75
72548;BME280;60570;50.848;6.776;2023-05-23T01:08:24;100654.13;;;20.30;60.50
72548;BME280;60570;50.848;6.776;2023-05-23T01:09:26;100652.50;;;20.29;60.85
72548;BME280;60570;50.848;6.776;2023-05-23T01:10:29;100649.69;;;20.29;61.06
72548;BME280;60570;50.848;6.776;2023-05-23T01:11:34;100649.69;;;20.29;60.73
72548;BME280;60570;50.848;6.776;2023-05-23T01:12:42;100649.69;;;20.29;60.78
72548;BME280;60570;50.848;6.776;2023-05-23T01:13:51;100653.31;;;20.30;61.02
72548;BME280;60570;50.848;6.776;2023-05-23T01:14:58;100649.69;;;20.29;60.43
72548;BME280;60570;50.848;6.776;2023-05-23T01:16:04;100654.50;;;20.29;60.82
72548;BME280;60570;50.848;6.776;2023-05-23T01:17:10;100659.38;;;20.28;60.99
72548;BME280;60570;50.848;6.776;2023-05-23T01:18:16;100657.34;;;20.29;61.04
72548;BME280;60570;50.848;6.776;2023-05-23T01:19:39;100658.16;;;20.29;60.79
72548;BME280;60570;50.848;6.776;2023-05-23T01:20:49;100654.50;;;20.29;60.93
72548;BME280;60570;50.848;6.776;2023-05-23T01:21:54;100653.72;;;20.28;60.78
72548;BME280;60570;50.848;6.776;2023-05-23T01:23:06;100661.38;;;20.28;60.95
72548;BME280;60570;50.848;6.776;2023-05-23T01:24:29;100661.38;;;20.28;60.95
72548;BME280;60570;50.848;6.776;2023-05-23T01:25:46;100663.38;;;20.27;60.61
72548;BME280;60570;50.848;6.776;2023-05-23T01:27:02;100663.38;;;20.27;60.62
72548;BME280;60570;50.848;6.776;2023-05-23T01:28:11;100667.03;;;20.28;60.71
72548;BME280;60570;50.848;6.776;2023-05-23T01:29:21;100665.38;;;20.27;60.65
72548;BME280;60570;50.848;6.776;2023-05-23T01:30:24;100666.59;;;20.26;60.64
72548;BME280;60570;50.848;6.776;2023-05-23T01:31:26;100658.13;;;20.26;60.75
72548;BME280;60570;50.848;6.776;2023-05-23T01:32:31;100663.78;;;20.26;60.71
72548;BME280;60570;50.848;6.776;2023-05-23T01:33:31;100668.59;;;20.25;60.41
72548;BME280;60570;50.848;6.776;2023-05-23T01:34:35;100664.59;;;20.26;60.21
72548;BME280;60570;50.848;6.776;2023-05-23T01:35:36;100657.31;;;20.25;60.92
72548;BME280;60570;50.848;6.776;2023-05-23T01:36:40;100662.16;;;20.25;60.74
72548;BME280;60570;50.848;6.776;2023-05-23T01:37:43;100653.28;;;20.23;60.64
72548;BME280;60570;50.848;6.776;2023-05-23T01:38:45;100658.13;;;20.22;60.87
72548;BME280;60570;50.848;6.776;2023-05-23T01:39:46;100650.84;;;20.21;60.54
72548;BME280;60570;50.848;6.776;2023-05-23T01:40:48;100655.31;;;20.22;60.58
72548;BME280;60570;50.848;6.776;2023-05-23T01:41:50;100655.69;;;20.21;60.89
72548;BME280;60570;50.848;6.776;2023-05-23T01:42:54;100656.50;;;20.21;60.87
72548;BME280;60570;50.848;6.776;2023-05-23T01:43:57;100661.75;;;20.23;60.42
72548;BME280;60570;50.848;6.776;2023-05-23T01:44:59;100654.50;;;20.22;60.25
72548;BME280;60570;50.848;6.776;2023-05-23T01:46:00;100652.44;;;20.19;60.50
72548;BME280;60570;50.848;6.776;2023-05-23T01:47:03;100657.72;;;20.20;60.59
72548;BME280;60570;50.848;6.776;2023-05-23T01:48:05;100656.91;;;20.20;60.60
72548;BME280;60570;50.848;6.776;2023-05-23T01:49:09;100662.53;;;20.20;60.65
72548;BME280;60570;50.848;6.776;2023-05-23T01:50:11;100666.19;;;20.20;60.68
72548;BME280;60570;50.848;6.776;2023-05-23T01:51:13;100658.09;;;20.19;60.53
72548;BME280;60570;50.848;6.776;2023-05-23T01:52:14;100656.09;;;20.19;60.86
72548;BME280;60570;50.848;6.776;2023-05-23T01:53:19;100664.91;;;20.18;60.57
72548;BME280;60570;50.848;6.776;2023-05-23T01:54:20;100663.28;;;20.17;60.80
72548;BME280;60570;50.848;6.776;2023-05-23T01:55:24;100661.28;;;20.17;60.45
72548;BME280;60570;50.848;6.776;2023-05-23T01:56:26;100661.69;;;20.16;60.36
72548;BME280;60570;50.848;6.776;2023-05-23T01:57:28;100662.09;;;20.18;60.46
72548;BME280;60570;50.848;6.776;2023-05-23T01:58:30;100673.38;;;20.18;60.56
72548;BME280;60570;50.848;6.776;2023-05-23T01:59:33;100672.56;;;20.17;60.54
72548;BME280;60570;50.848;6.776;2023-05-23T02:00:34;100674.56;;;20.17;60.63
72548;BME280;60570;50.848;6.776;2023-05-23T02:01:36;100672.56;;;20.14;60.49
72548;BME280;60570;50.848;6.776;2023-05-23T02:02:37;100678.63;;;20.16;60.34
72548;BME280;60570;50.848;6.776;2023-05-23T02:03:39;100671.38;;;20.15;60.56
72548;BME280;60570;50.848;6.776;2023-05-23T02:04:40;100680.22;;;20.13;60.34
72548;BME280;60570;50.848;6.776;2023-05-23T02:05:41;100679.84;;;20.15;60.57
72548;BME280;60570;50.848;6.776;2023-05-23T02:06:42;100681.84;;;20.14;60.64
72548;BME280;60570;50.848;6.776;2023-05-23T02:07:43;100689.47;;;20.14;60.62
72548;BME280;60570;50.848;6.776;2023-05-23T02:08:44;100690.72;;;20.13;60.67
72548;BME280;60570;50.848;6.776;2023-05-23T02:09:46;100689.06;;;20.12;60.70
72548;BME280;60570;50.848;6.776;2023-05-23T02:10:46;100690.28;;;20.11;60.63
72548;BME280;60570;50.848;6.776;2023-05-23T02:11:48;100688.25;;;20.11;60.63
72548;BME280;60570;50.848;6.776;2023-05-23T02:12:48;100695.53;;;20.12;60.68
72548;BME280;60570;50.848;6.776;2023-05-23T02:13:50;100696.72;;;20.11;60.35
72548;BME280;60570;50.848;6.776;2023-05-23T02:14:52;100690.66;;;20.09;60.62
72548;BME280;60570;50.848;6.776;2023-05-23T02:15:55;100695.53;;;20.09;60.58
72548;BME280;60570;50.848;6.776;2023-05-23T02:16:55;100695.53;;;20.09;60.71
72548;BME280;60570;50.848;6.776;2023-05-23T02:17:57;100700.75;;;20.10;60.56
72548;BME280;60570;50.848;6.776;2023-05-23T02:18:57;100689.88;;;20.09;60.54
72548;BME280;60570;50.848;6.776;2023-05-23T02:19:59;100700.34;;;20.08;60.80
72548;BME280;60570;50.848;6.776;2023-05-23T02:21:00;100705.16;;;20.08;60.63
72548;BME280;60570;50.848;6.776;2023-05-23T02:22:02;100703.97;;;20.09;60.67
72548;BME280;60570;50.848;6.776;2023-05-23T02:23:02;100694.69;;;20.08;60.82
72548;BME280;60570;50.848;6.776;2023-05-23T02:24:04;100702.34;;;20.08;60.67
72548;BME280;60570;50.848;6.776;2023-05-23T02:25:06;100713.63;;;20.08;60.77
72548;BME280;60570;50.848;6.776;2023-05-23T02:26:08;100693.47;;;20.06;60.51
72548;BME280;60570;50.848;6.776;2023-05-23T02:27:08;100705.56;;;20.06;60.86
72548;BME280;60570;50.848;6.776;2023-05-23T02:28:10;100703.16;;;20.05;60.52
72548;BME280;60570;50.848;6.776;2023-05-23T02:29:12;100700.69;;;20.03;60.29
72548;BME280;60570;50.848;6.776;2023-05-23T02:30:15;100701.53;;;20.04;60.67
72548;BME280;60570;50.848;6.776;2023-05-23T02:31:15;100701.53;;;20.04;60.43
72548;BME280;60570;50.848;6.776;2023-05-23T02:32:17;100709.56;;;20.05;60.35
72548;BME280;60570;50.848;6.776;2023-05-23T02:33:17;100694.69;;;20.01;60.52
72548;BME280;60570;50.848;6.776;2023-05-23T02:34:19;100705.16;;;20.04;60.45
72548;BME280;60570;50.848;6.776;2023-05-23T02:35:21;100700.31;;;20.01;60.28
72548;BME280;60570;50.848;6.776;2023-05-23T02:36:22;100705.97;;;20.01;60.44
72548;BME280;60570;50.848;6.776;2023-05-23T02:37:23;100705.97;;;20.01;60.34
72548;BME280;60570;50.848;6.776;2023-05-23T02:38:25;100705.13;;;20.01;60.84
72548;BME280;60570;50.848;6.776;2023-05-23T02:39:26;100703.50;;;20.00;60.45
72548;BME280;60570;50.848;6.776;2023-05-23T02:40:28;100700.28;;;19.98;60.12
72548;BME280;60570;50.848;6.776;2023-05-23T02:41:29;100703.91;;;19.98;60.24
72548;BME280;60570;50.848;6.776;2023-05-23T02:42:30;100707.53;;;19.99;60.32
72548;BME280;60570;50.848;6.776;2023-05-23T02:43:31;100695.03;;;19.96;60.52
72548;BME280;60570;50.848;6.776;2023-05-23T02:44:32;100699.50;;;19.97;60.40
72548;BME280;60570;50.848;6.776;2023-05-23T02:45:34;100700.28;;;19.98;60.33
72548;BME280;60570;50.848;6.776;2023-05-23T02:46:36;100700.28;;;19.98;60.21
72548;BME280;60570;50.848;6.776;2023-05-23T02:47:37;100703.09;;;19.98;60.33
72548;BME280;60570;50.848;6.776;2023-05-23T02:48:38;100708.72;;;19.98;60.52
72548;BME280;60570;50.848;6.776;2023-05-23T02:49:39;100705.50;;;19.96;60.24
72548;BME280;60570;50.848;6.776;2023-05-23T02:50:40;100706.31;;;19.96;60.45
72548;BME280;60570;50.848;6.776;2023-05-23T02:51:41;100700.66;;;19.96;60.50
72548;BME280;60570;50.848;6.776;2023-05-23T02:52:42;100708.31;;;19.96;60.46
72548;BME280;60570;50.848;6.776;2023-05-23T02:53:43;100704.72;;;19.95;60.55
72548;BME280;60570;50.848;6.776;2023-05-23T02:54:45;100702.66;;;19.92;60.57
72548;BME280;60570;50.848;6.776;2023-05-23T02:55:46;100705.47;;;19.92;60.54
72548;BME280;60570;50.848;6.776;2023-05-23T02:56:47;100708.31;;;19.92;60.63
72548;BME280;60570;50.848;6.776;2023-05-23T02:57:49;100709.94;;;19.93;60.45
72548;BME280;60570;50.848;6.776;2023-05-23T02:58:51;100705.47;;;19.92;60.41
72548;BME280;60570;50.848;6.776;2023-05-23T02:59:52;100709.13;;;19.93;60.47
72548;BME280;60570;50.848;6.776;2023-05-23T03:00:55;100705.88;;;19.91;60.41
72548;BME280;60570;50.848;6.776;2023-05-23T03:01:56;100707.50;;;19.92;60.37
72548;BME280;60570;50.848;6.776;2023-05-23T03:02:58;100709.53;;;19.91;60.27
72548;BME280;60570;50.848;6.776;2023-05-23T03:03:58;100713.13;;;19.92;60.39
72548;BME280;60570;50.848;6.776;2023-05-23T03:04:59;100706.28;;;19.89;60.18
72548;BME280;60570;50.848;6.776;2023-05-23T03:06:00;100701.44;;;19.90;60.52
72548;BME280;60570;50.848;6.776;2023-05-23T03:07:02;100708.28;;;19.89;60.13
72548;BME280;60570;50.848;6.776;2023-05-23T03:08:03;100702.66;;;19.89;60.51
72548;BME280;60570;50.848;6.776;2023-05-23T03:09:04;100702.22;;;19.87;60.50
72548;BME280;60570;50.848;6.776;2023-05-23T03:10:05;100709.09;;;19.89;60.36
72548;BME280;60570;50.848;6.776;2023-05-23T03:11:07;100707.47;;;19.88;60.40
72548;BME280;60570;50.848;6.776;2023-05-23T03:12:08;100707.47;;;19.88;60.40
72548;BME280;60570;50.848;6.776;2023-05-23T03:13:10;100709.88;;;19.86;60.01
72548;BME280;60570;50.848;6.776;2023-05-23T03:14:10;100711.91;;;19.86;60.15
72548;BME280;60570;50.848;6.776;2023-05-23T03:15:12;100709.47;;;19.84;60.09
72548;BME280;60570;50.848;6.776;2023-05-23T03:16:14;100706.63;;;19.84;60.34
72548;BME280;60570;50.848;6.776;2023-05-23T03:17:16;100714.31;;;19.84;60.31
72548;BME280;60570;50.848;6.776;2023-05-23T03:18:16;100711.50;;;19.84;60.48
72548;BME280;60570;50.848;6.776;2023-05-23T03:19:18;100713.50;;;19.83;60.37
72548;BME280;60570;50.848;6.776;2023-05-23T03:20:18;100710.25;;;19.81;60.09
72548;BME280;60570;50.848;6.776;2023-05-23T03:21:20;100711.84;;;19.82;60.42
72548;BME280;60570;50.848;6.776;2023-05-23T03:22:21;100713.91;;;19.82;60.11
72548;BME280;60570;50.848;6.776;2023-05-23T03:23:22;100715.91;;;19.81;60.20
72548;BME280;60570;50.848;6.776;2023-05-23T03:24:23;100711.06;;;19.82;60.10
72548;BME280;60570;50.848;6.776;2023-05-23T03:25:25;100715.91;;;19.81;60.23
72548;BME280;60570;50.848;6.776;2023-05-23T03:26:26;100716.28;;;19.80;60.12
72548;BME280;60570;50.848;6.776;2023-05-23T03:27:27;100721.53;;;19.81;60.30
72548;BME280;60570;50.848;6.776;2023-05-23T03:28:28;100721.94;;;19.80;60.19
72548;BME280;60570;50.848;6.776;2023-05-23T03:29:29;100725.16;;;19.82;59.90
72548;BME280;60570;50.848;6.776;2023-05-23T03:30:30;100721.53;;;19.81;60.29
72548;BME280;60570;50.848;6.776;2023-05-23T03:31:33;100724.75;;;19.80;60.26
72548;BME280;60570;50.848;6.776;2023-05-23T03:32:33;100719.13;;;19.80;60.37
72548;BME280;60570;50.848;6.776;2023-05-23T03:33:35;100729.19;;;19.81;60.35
72548;BME280;60570;50.848;6.776;2023-05-23T03:34:36;100733.59;;;19.78;60.53
72548;BME280;60570;50.848;6.776;2023-05-23T03:35:37;100728.34;;;19.77;60.27
72548;BME280;60570;50.848;6.776;2023-05-23T03:36:38;100733.16;;;19.76;60.37
72548;BME280;60570;50.848;6.776;2023-05-23T03:37:40;100728.34;;;19.77;60.58
72548;BME280;60570;50.848;6.776;2023-05-23T03:38:41;100735.97;;;19.76;60.11
72548;BME280;60570;50.848;6.776;2023-05-23T03:39:42;100738.38;;;19.74;60.40
72548;BME280;60570;50.848;6.776;2023-05-23T03:40:43;100732.38;;;19.76;60.43
72548;BME280;60570;50.848;6.776;2023-05-23T03:41:45;100736.38;;;19.75;60.03
72548;BME280;60570;50.848;6.776;2023-05-23T03:42:47;100741.19;;;19.74;60.18
72548;BME280;60570;50.848;6.776;2023-05-23T03:43:48;100731.13;;;19.73;60.19
72548;BME280;60570;50.848;6.776;2023-05-23T03:44:49;100732.75;;;19.74;60.07
72548;BME280;60570;50.848;6.776;2023-05-23T03:45:51;100733.13;;;19.69;59.99
72548;BME280;60570;50.848;6.776;2023-05-23T03:46:53;100739.19;;;19.71;60.37
72548;BME280;60570;50.848;6.776;2023-05-23T03:47:54;100736.34;;;19.71;60.44
72548;BME280;60570;50.848;6.776;2023-05-23T03:48:55;100740.41;;;19.70;59.96
72548;BME280;60570;50.848;6.776;2023-05-23T03:49:56;100741.59;;;19.69;60.39
72548;BME280;60570;50.848;6.776;2023-05-23T03:50:57;100739.97;;;19.68;60.16
72548;BME280;60570;50.848;6.776;2023-05-23T03:51:58;100739.16;;;19.67;60.43
72548;BME280;60570;50.848;6.776;2023-05-23T03:52:59;100732.69;;;19.67;60.22
72548;BME280;60570;50.848;6.776;2023-05-23T03:54:00;100735.13;;;19.68;60.37
72548;BME280;60570;50.848;6.776;2023-05-23T03:55:01;100746.41;;;19.68;60.37
72548;BME280;60570;50.848;6.776;2023-05-23T03:56:02;100739.16;;;19.67;60.30
72548;BME280;60570;50.848;6.776;2023-05-23T03:57:03;100739.16;;;19.67;60.14
72548;BME280;60570;50.848;6.776;2023-05-23T03:58:04;100735.53;;;19.67;60.22
72548;BME280;60570;50.848;6.776;2023-05-23T03:59:05;100733.91;;;19.66;60.09
72548;BME280;60570;50.848;6.776;2023-05-23T04:00:07;100735.09;;;19.65;60.17
72548;BME280;60570;50.848;6.776;2023-05-23T04:01:09;100742.75;;;19.64;60.54
72548;BME280;60570;50.848;6.776;2023-05-23T04:02:12;100740.75;;;19.65;60.32
72548;BME280;60570;50.848;6.776;2023-05-23T04:03:12;100731.47;;;19.64;60.43
72548;BME280;60570;50.848;6.776;2023-05-23T04:04:16;100738.72;;;19.62;60.36
72548;BME280;60570;50.848;6.776;2023-05-23T04:05:17;100743.13;;;19.63;60.49
72548;BME280;60570;50.848;6.776;2023-05-23T04:06:19;100745.56;;;19.64;60.41
72548;BME280;60570;50.848;6.776;2023-05-23T04:07:19;100750.41;;;19.64;60.41
72548;BME280;60570;50.848;6.776;2023-05-23T04:08:21;100752.41;;;19.60;60.43
72548;BME280;60570;50.848;6.776;2023-05-23T04:09:22;100748.34;;;19.61;60.36
72548;BME280;60570;50.848;6.776;2023-05-23T04:10:23;100743.53;;;19.61;60.27
72548;BME280;60570;50.848;6.776;2023-05-23T04:11:24;100745.13;;;19.59;60.36
72548;BME280;60570;50.848;6.776;2023-05-23T04:12:25;100748.34;;;19.61;60.35
72548;BME280;60570;50.848;6.776;2023-05-23T04:13:26;100751.19;;;19.61;60.47
72548;BME280;60570;50.848;6.776;2023-05-23T04:14:27;100754.41;;;19.59;60.34
72548;BME280;60570;50.848;6.776;2023-05-23T04:15:28;100750.38;;;19.60;60.47
72548;BME280;60570;50.848;6.776;2023-05-23T04:16:30;100759.63;;;19.61;60.35
72548;BME280;60570;50.848;6.776;2023-05-23T04:17:33;100752.78;;;19.58;60.37
72548;BME280;60570;50.848;6.776;2023-05-23T04:18:37;100751.56;;;19.59;60.27
72548;BME280;60570;50.848;6.776;2023-05-23T04:19:38;100749.56;;;19.56;60.46
72548;BME280;60570;50.848;6.776;2023-05-23T04:20:40;100747.53;;;19.57;60.40
72548;BME280;60570;50.848;6.776;2023-05-23T04:21:41;100753.97;;;19.57;60.41
72548;BME280;60570;50.848;6.776;2023-05-23T04:22:42;100760.44;;;19.58;60.46
72548;BME280;60570;50.848;6.776;2023-05-23T04:23:44;100758.00;;;19.56;60.38
72548;BME280;60570;50.848;6.776;2023-05-23T04:24:46;100752.38;;;19.56;60.49
72548;BME280;60570;50.848;6.776;2023-05-23T04:25:46;100756.38;;;19.55;60.33
72548;BME280;60570;50.848;6.776;2023-05-23T04:26:48;100753.94;;;19.54;60.58
72548;BME280;60570;50.848;6.776;2023-05-23T04:27:48;100758.78;;;19.53;60.37
72548;BME280;60570;50.848;6.776;2023-05-23T04:28:50;100760.78;;;19.53;60.48
72548;BME280;60570;50.848;6.776;2023-05-23T04:29:53;100763.16;;;19.51;60.36
72548;BME280;60570;50.848;6.776;2023-05-23T04:30:55;100756.75;;;19.50;60.48
72548;BME280;60570;50.848;6.776;2023-05-23T04:31:56;100760.75;;;19.49;60.61
72548;BME280;60570;50.848;6.776;2023-05-23T04:32:59;100755.53;;;19.51;60.57
72548;BME280;60570;50.848;6.776;2023-05-23T04:33:59;100771.63;;;19.51;60.59
72548;BME280;60570;50.848;6.776;2023-05-23T04:35:01;100761.56;;;19.50;60.57
72548;BME280;60570;50.848;6.776;2023-05-23T04:36:03;100766.00;;;19.51;60.40
72548;BME280;60570;50.848;6.776;2023-05-23T04:37:08;100762.75;;;19.49;60.71
72548;BME280;60570;50.848;6.776;2023-05-23T04:38:08;100757.94;;;19.49;60.52
72548;BME280;60570;50.848;6.776;2023-05-23T04:39:10;100760.75;;;19.49;60.57
72548;BME280;60570;50.848;6.776;2023-05-23T04:40:11;100767.19;;;19.46;60.49
72548;BME280;60570;50.848;6.776;2023-05-23T04:41:13;100763.97;;;19.48;60.71
72548;BME280;60570;50.848;6.776;2023-05-23T04:42:15;100761.53;;;19.46;60.86
72548;BME280;60570;50.848;6.776;2023-05-23T04:43:16;100756.31;;;19.45;60.59
72548;BME280;60570;50.848;6.776;2023-05-23T04:44:19;100752.66;;;19.44;60.60
72548;BME280;60570;50.848;6.776;2023-05-23T04:45:20;100764.34;;;19.43;60.52
72548;BME280;60570;50.848;6.776;2023-05-23T04:46:20;100765.13;;;19.43;60.96
72548;BME280;60570;50.848;6.776;2023-05-23T04:47:25;100764.75;;;19.45;60.59
72548;BME280;60570;50.848;6.776;2023-05-23T04:48:28;100757.47;;;19.44;60.60
72548;BME280;60570;50.848;6.776;2023-05-23T04:49:30;100765.50;;;19.42;60.41
72548;BME280;60570;50.848;6.776;2023-05-23T04:50:33;100760.31;;;19.44;60.76
72548;BME280;60570;50.848;6.776;2023-05-23T04:51:35;100765.13;;;19.43;60.58
72548;BME280;60570;50.848;6.776;2023-05-23T04:52:35;100762.69;;;19.42;60.53
72548;BME280;60570;50.848;6.776;2023-05-23T04:53:37;100761.50;;;19.43;60.75
72548;BME280;60570;50.848;6.776;2023-05-23T04:54:40;100760.69;;;19.42;60.68
72548;BME280;60570;50.848;6.776;2023-05-23T04:55:43;100765.50;;;19.42;60.71
72548;BME280;60570;50.848;6.776;2023-05-23T04:56:44;100761.09;;;19.41;60.43
72548;BME280;60570;50.848;6.776;2023-05-23T04:57:45;100771.97;;;19.42;60.66
72548;BME280;60570;50.848;6.776;2023-05-23T04:58:46;100771.53;;;19.40;60.58
72548;BME280;60570;50.848;6.776;2023-05-23T04:59:48;100774.38;;;19.40;60.69
72548;BME280;60570;50.848;6.776;2023-05-23T05:00:48;100774.75;;;19.39;60.68
72548;BME280;60570;50.848;6.776;2023-05-23T05:01:50;100763.50;;;19.39;60.63
72548;BME280;60570;50.848;6.776;2023-05-23T05:02:50;100768.31;;;19.38;60.51
72548;BME280;60570;50.848;6.776;2023-05-23T05:03:53;100763.84;;;19.37;60.37
72548;BME280;60570;50.848;6.776;2023-05-23T05:04:54;100765.50;;;19.38;60.77
72548;BME280;60570;50.848;6.776;2023-05-23T05:05:55;100771.13;;;19.38;60.62
72548;BME280;60570;50.848;6.776;2023-05-23T05:06:56;100771.53;;;19.37;60.46
72548;BME280;60570;50.848;6.776;2023-05-23T05:07:57;100776.75;;;19.38;60.77
72548;BME280;60570;50.848;6.776;2023-05-23T05:08:58;100776.75;;;19.38;60.61
72548;BME280;60570;50.848;6.776;2023-05-23T05:09:59;100777.56;;;19.39;60.59
72548;BME280;60570;50.848;6.776;2023-05-23T05:11:00;100773.13;;;19.38;60.67
72548;BME280;60570;50.848;6.776;2023-05-23T05:12:01;100773.94;;;19.38;60.58
72548;BME280;60570;50.848;6.776;2023-05-23T05:13:02;100778.34;;;19.36;60.37
72548;BME280;60570;50.848;6.776;2023-05-23T05:14:03;100778.34;;;19.36;60.71
72548;BME280;60570;50.848;6.776;2023-05-23T05:15:04;100776.34;;;19.36;60.56
72548;BME280;60570;50.848;6.776;2023-05-23T05:16:06;100783.16;;;19.35;60.63
72548;BME280;60570;50.848;6.776;2023-05-23T05:17:06;100785.19;;;19.35;60.43
72548;BME280;60570;50.848;6.776;2023-05-23T05:18:08;100779.56;;;19.35;60.34
72548;BME280;60570;50.848;6.776;2023-05-23T05:19:10;100780.72;;;19.34;60.83
72548;BME280;60570;50.848;6.776;2023-05-23T05:20:11;100783.56;;;19.34;60.65
72548;BME280;60570;50.848;6.776;2023-05-23T05:21:12;100785.56;;;19.33;60.83
72548;BME280;60570;50.848;6.776;2023-05-23T05:22:13;100783.50;;;19.30;60.52
72548;BME280;60570;50.848;6.776;2023-05-23T05:23:14;100782.28;;;19.31;60.65
72548;BME280;60570;50.848;6.776;2023-05-23T05:24:15;100779.84;;;19.30;60.49